Search flights

Capodichino Airport, Naples (LIRN)

Airport Weather & NOTAM's

METAR for:LIRN (Naples Intl, NA, IT)
Text:LIRN 160620Z VRB01KT CAVOK 23/16 Q1013 NOSIG
Conditions at:0620 UTC 16 Jun 2024
Temperature: 23.0°C ( 73°F)
Dewpoint: 16.0°C ( 61°F) [RH = 65%]
Pressure (altimeter):29.91 inches Hg (1013.0 mb)
Winds:variable direction winds at 1 MPH (1 knots; 0.5 m/s)
Visibility:6 or more sm (10+ km)
Ceiling:ceiling and visibility are OK
Clouds:unknown
TAF for:LIRN (Naples Intl, NA, IT) issued at 0500 UTC 16 Jun 2024
Text:TAF LIRN 160500Z 1606/1706 VRB05KT 9999 SCT050
Forecast period:0600 to 1000 UTC 16 June 2024
Forecast type:FROM: standard forecast or significant change
Winds:variable direction winds at 6 MPH (5 knots; 2.6 m/s)
Visibility:6 or more sm (10+ km)
Ceiling:at least 12,000 feet AGL
Clouds:scattered clouds at 5000 feet AGL
Text:BECMG 1610/1612 23010KT
Forecast period:1000 to 1600 UTC 16 June 2024
Forecast type:BECOMING: Conditions expected to become as follows by 1200 UTC 16 June 2024
Winds:from the SW (230 degrees) at 12 MPH (10 knots; 5.1 m/s)
Visibility:6 or more sm (10+ km)
Ceiling:at least 12,000 feet AGL
Clouds:scattered clouds at 5000 feet AGL
Text:BECMG 1616/1618 VRB05KT
Forecast period:1600 UTC 16 June 2024 to 0600 UTC 17 June 2024
Forecast type:BECOMING: Conditions expected to become as follows by 1800 UTC 16 June 2024
Winds:variable direction winds at 6 MPH (5 knots; 2.6 m/s)
Visibility:6 or more sm (10+ km)
Ceiling:at least 12,000 feet AGL
Clouds:scattered clouds at 5000 feet AGL

Live Departures & Arrivals

There are currently no arrivals or departures for this airport.

Departures History (last 12 months)

Flight No. Dest. Aircraft Date
SIC0126 LIPE PMDG 737-7... 2024-05-17 18:14:45
SIC0128 LIPZ PMDG 737-7... 2024-05-05 15:55:35
SIC0868 LICJ FenixA320_... 2024-04-26 09:02:49
SIC0968 LIRF B737-800 2024-04-16 14:00:00
SIC0110 LIRN Cessna Sky... 2024-04-15 19:06:53
SIC0904 LICJ PMDG 737-8... 2024-03-31 21:01:36
SIC0904 LEMH LEARJET 35... 2024-03-25 12:33:58
SIC0755 LIRL Cessna Sky... 2024-03-19 16:52:38
SPP-TR02 LIRF PMDG 737-8... 2024-03-17 13:21:48
BM3024 LIMF PMDG 737-8... 2024-02-25 20:50:29
SIC0900 HESH PMDG 737-8... 2024-02-04 09:33:44
BM119 LIRF PMDG 737-8... 2024-01-25 15:09:13
SICBM1965 LIPZ PMDG 737-8... 2024-01-19 16:44:08
SIC0904 LSZH A300 Freig... 2024-01-14 15:18:28
SIC0130 LISG C152 JP AI... 2024-01-14 19:48:56
LIRN_US0_APP LIRN C172 2024-01-01 20:28:00
SIC0998 LFMN PMDG 737-8... 2023-12-31 21:54:04
SIC0701 LFMN PMDG 737-8... 2023-12-31 22:05:05
BMI0982 LICJ A300-600RF... 2023-12-29 11:27:20
LIRN_US0_APP LIRN C172 2023-12-17 15:20:00
SIC0133 LIEH Cessna 208... 2023-12-16 11:50:32
SPP-TR02 LIRF AIRBUS A32... 2023-09-20 19:06:00
SIC033 LGSR Airbus A32... 2023-11-24 19:52:05
SIC0649 LOWI CJ4 2023-11-09 13:25:00
SIC0038 LICC Airbus A32... 2023-11-09 04:39:17
SPP-TR02 LIRF PMDG 737-8... 2023-11-04 18:09:19
SIC1117 LICR TBM 930 AI... 2023-11-03 13:25:54
SICBM1045 LICJ Airbus A32... 2023-10-23 21:37:37
SIC0172 LICB FFX Vision... 2023-10-22 15:57:24
SIC0006 LICC FenixA320... 2023-10-22 20:31:20
SPP-TR02 LIRF Airbus A32... 2023-10-19 04:33:09
SIC0673 LICC PMDG 737-7... 2023-10-16 11:58:25
SIC0868 LIML FenixA320... 2023-10-09 08:17:57
SIC0868 LICG FenixA320... 2023-10-08 16:28:10
BM119 LIME PMDG 737-8... 2023-10-08 19:11:43
SPP-TR02 LIRF PMDG 737-8... 2023-09-25 20:27:28
SPP-TR02 LIRF FenixA320... 2023-09-25 08:55:11
SIC0904 LIPO PMDG 737-8... 2023-09-25 19:09:19
99 LIPO FWB Poste... 2023-09-25 18:31:58
SPP-TR02 LIRF FenixA320... 2023-09-23 08:31:23
SPP-TR02 LIRF FenixA320... 2023-09-21 18:25:12
SPP-TR02 LIRF PMDG 737-8... 2023-09-20 15:08:43
SPP-TR02 LIRF PMDG 737-8... 2023-09-20 12:39:17
SIC1801 LIRF Airbus A32... 2023-09-19 19:06:28
SPP-TR02 LIRF FenixA320... 2023-09-18 06:46:43
BMI0982 LATI Airbus A31... 2023-08-31 10:22:36
SIC0900 LFPO PMDG 737-8... 2023-08-27 07:36:23
SIC0107 LGMK FenixA320_... 2023-08-12 05:51:33
SIC2679 LICJ Airbus A32... 2023-07-29 19:18:52
BMV0982 LIBD Carenado C... 2023-07-28 17:05:54
BMI0982 LIRN ATR 42 Ama... 2023-07-21 13:39:03
FCA4314 LICC PMDG 737-8... 2023-07-13 08:36:22
BM1045 LICJ FenixA320 2023-07-12 23:29:39
SIC1801 LIRF Airbus A32... 2023-07-09 20:11:18
BMI0107 LICC FenixA320... 2023-07-06 18:51:59
BM119 LGKR FenixA320... 2023-07-03 10:19:34
SIC2679 LICC FenixA320... 2023-06-30 20:04:59
SIC0023 LICC FenixA320... 2023-06-30 19:32:37
BM3022 LIMJ PMDG 737-8... 2023-06-30 07:28:10
66 LICC Cessna Lon... 2023-06-30 19:28:50
SIC0103 LIBP Cessna 172... 2023-06-28 19:12:10
SIC0034 LIBP C208 | AIR... 2023-06-28 19:33:49
BMV0023 LIBP C172 2023-06-28 19:52:00
12 LIPE Cessna Lon... 2023-06-28 19:38:28
SIC2679 LIBD Cessna 208... 2023-06-25 14:01:06
SIC2679 LIRI Cessna 208... 2023-06-22 20:02:26

Arrivals History (last 12 months)

Flight No. Origin Aircraft Date
BMV317 LIRA Cessna Sky... 2024-06-03 21:31:31
SICSPPTR01 LICJ FenixA320_... 2024-05-25 18:20:12
SIC0748 LIRP LEARJET 35... 2024-05-22 21:41:01
SIC0868 LEPA FenixA320_... 2024-04-26 07:59:28
BM119 LIBC FenixA320_... 2024-04-16 12:51:53
SIC0110 LIRN Cessna Sky... 2024-04-15 20:02:19
SIC0904 LEPA PMDG 737-8... 2024-03-31 10:18:49
SIC0701 LICC PMDG 737-8... 2024-03-25 23:11:50
SPP-TR01 LICJ PMDG 737-8... 2024-03-15 21:55:59
SIC0904 LICC TBM850 AIR... 2024-03-07 22:11:02
BM119 LICJ PMDG 737-8... 2024-02-09 19:14:41
CHARTER LIMF FenixA320... 2024-01-30 22:04:28
SICSIC LICJ PMDG 737-8... 2024-01-19 15:51:33
SIC0904 LIEO TBM850 AIR... 2024-01-08 22:05:46
SIC1015 LICC FenixA320... 2024-01-07 12:19:07
LIRN_US0_APP LIRN C172 2024-01-01 23:39:00
SIC0027 LIBP M500 by FS... 2023-12-22 14:01:31
BM119 LIBC FenixA320... 2023-12-21 11:26:24
LIRN_US0_APP LIRN C172 2023-12-17 19:20:00
SIC0133 LIME Airbus A32... 2023-12-12 14:19:36
SIC0108 LIRI Cessna Sky... 2023-11-25 11:33:33
SIC0133 LIRU PC12 CHRON... 2023-11-24 09:30:34
SIC0133 LIME Airbus A32... 2023-11-19 22:31:05
SIC0107 LIME FenixA320... 2023-11-19 22:40:04
BMV301 LICJ FenixA320... 2023-11-11 12:13:02
SIC0649 LGSK PMDG 737-8... 2023-11-09 10:29:19
SIC0038 LFMN Airbus A32... 2023-11-08 13:53:17
SIC0107 LIPE FenixA320... 2023-11-05 20:09:54
SPP-TR01 LICJ PMDG 737-8... 2023-11-03 22:33:23
SIC1117 LICR TBM 930 AI... 2023-11-03 10:18:49
BMV301 LICJ FenixA320... 2023-11-03 18:07:25
SIC0172 LICC Black Squa... 2023-10-22 10:16:12
BM119 LIBC PMDG 737-8... 2023-10-22 08:14:34
SPP-TR01 LICJ PMDG PMDG... 2023-10-17 18:12:05
BM1040 LICJ FenixA320... 2023-10-11 18:13:56
SPP-TR01 LICJ FenixA320... 2023-09-22 14:51:10
SPPTR01 LICJ FenixA320... 2023-09-20 14:35:54
SPP-TR01 LICJ PMDG 737-8... 2023-09-20 23:56:37
SPP-TR01 LICJ FenixA320... 2023-09-20 19:20:52
SPP-TR01 LICJ PMDG 737-8... 2023-09-20 11:35:39
SPP-TR01 LICJ PMDG 737-8... 2023-09-19 16:50:18
SPP-TR01 LICJ Airbus A32... 2023-09-18 17:05:33
SPP-TR01 LICJ FenixA320... 2023-09-18 08:20:34
SIC0868 LICJ FenixA320... 2023-09-18 17:39:32
SIC0904 LIMF CRJ1000 AI... 2023-09-11 21:27:29
SIC0054 LIMF PMDG 737-8... 2023-09-11 21:27:30
SIC0006 LICC 320_JARDes... 2023-09-11 15:19:39
SIC0868 LOWI FenixA320... 2023-08-21 17:32:50
BMI0982 LICJ Airbus A31... 2023-08-15 17:08:50
SIC0378 LIPZ PMDG 737-8... 2023-08-06 12:56:57
SIC0027 LIPZ FenixA320... 2023-08-05 12:39:17
SIC0649 LIPZ PMDG 737-8... 2023-08-04 08:27:10
BMI0982 LIRN ATR 42 Ama... 2023-07-21 16:45:10
BM LICJ FenixA320... 2023-07-18 22:53:51
FCA4313 LICC PMDG 737-8... 2023-07-13 07:56:44
BMV0982 LIRU Carenado C... 2023-07-09 21:23:42
SIC1801 LICA Beechcraft... 2023-07-06 21:25:20
SIC0977 LICA C208 2023-07-06 21:30:00
BMV0478 LICA A36TC Bona... 2023-07-06 21:17:21
BMV0023 LICA C208 2023-07-06 21:25:00
BM119 LIRF PMDG 737-8... 2023-07-04 17:50:28
SIC2679 LICT FenixA320... 2023-06-25 13:51:32
SIC0023 LIMF TBM 930 As... 2023-06-25 15:37:13
SIC2679 LIRI Cessna 208... 2023-06-22 21:11:32
SIC0357 LICA Cessna Sky... 2023-06-19 11:08:20

Runway Information (Airport elevation: 295ft)

Runway 06 Length 8,619ft Width 146ft Elevation 295ft Surface Asphalt Heading 58
Runway 24 Length 8,619ft Width 146ft Elevation 295ft Surface Asphalt Heading 238

Airport Frequencies

Type APP/DEP Frequency 124.350 Mhz
Type APP/DEP Frequency 134.200 Mhz
Type ATIS Frequency 135.975 Mhz
Type Ground Frequency 121.900 Mhz
Type Tower Frequency 118.500 Mhz
Type Tower Frequency 120.950 Mhz
Type CTR Frequency 124.350 Mhz
Type CTR Frequency 134.200 Mhz
Type Ground Frequency 121.900 Mhz
Type Tower Frequency 118.500 Mhz
Type Tower Frequency 120.950 Mhz

Airport Navaids

Type VOR-DME Ident POM Frequency 117850 Khz
Type NDB Ident POM Frequency 351 Khz